createdAt,value
2023-02-24T00:01:28.590Z,30.50
2023-02-24T00:05:02.273Z,29.80
2023-02-24T00:08:24.123Z,28.60
2023-02-24T00:11:49.238Z,30.30
2023-02-24T00:15:11.224Z,28.70
2023-02-24T00:18:33.611Z,26.30
2023-02-24T00:21:55.658Z,28.10
2023-02-24T00:25:27.128Z,27.30
2023-02-24T00:28:48.950Z,27.80
2023-02-24T00:32:13.631Z,30.50
2023-02-24T00:35:35.807Z,30.60
2023-02-24T00:39:00.314Z,27.00
2023-02-24T00:42:23.018Z,29.60
2023-02-24T00:45:56.661Z,29.30
2023-02-24T00:49:20.943Z,28.10
2023-02-24T00:52:43.315Z,30.10
2023-02-24T00:56:40.816Z,30.00
2023-02-24T01:00:39.371Z,31.70
2023-02-24T01:04:11.531Z,30.00
2023-02-24T01:07:33.664Z,29.10
2023-02-24T01:11:17.635Z,29.90
2023-02-24T01:14:39.895Z,26.70
2023-02-24T01:18:01.955Z,28.90
2023-02-24T01:25:02.671Z,32.50
2023-02-24T01:28:24.466Z,29.70
2023-02-24T01:31:48.651Z,29.40
2023-02-24T01:35:14.603Z,26.20
2023-02-24T01:38:37.107Z,32.60
2023-02-24T01:42:01.594Z,29.20
2023-02-24T01:45:29.100Z,24.90
2023-02-24T01:48:52.346Z,32.60
2023-02-24T01:52:21.003Z,25.20
2023-02-24T01:55:50.087Z,25.40
2023-02-24T01:59:24.655Z,29.60
2023-02-24T02:02:50.662Z,27.60
2023-02-24T02:06:17.806Z,35.20
2023-02-24T02:09:43.609Z,27.70
2023-02-24T02:13:08.804Z,26.40
2023-02-24T02:16:45.958Z,28.70
2023-02-24T02:20:42.819Z,31.20
2023-02-24T02:24:35.533Z,24.90
2023-02-24T02:28:20.651Z,26.30
2023-02-24T02:32:24.891Z,29.80
2023-02-24T02:35:54.575Z,27.70
2023-02-24T02:39:41.337Z,27.80
2023-02-24T02:43:26.792Z,27.00
2023-02-24T02:47:04.696Z,28.10
2023-02-24T02:50:43.302Z,28.40
2023-02-24T02:54:16.192Z,30.90
2023-02-24T02:57:47.294Z,25.80
2023-02-24T03:01:10.189Z,31.20
2023-02-24T03:04:32.153Z,28.40
2023-02-24T03:07:59.110Z,30.50
2023-02-24T03:11:21.379Z,27.50
2023-02-24T03:14:51.540Z,24.40
2023-02-24T03:18:30.025Z,29.60
2023-02-24T03:22:06.283Z,30.40
2023-02-24T03:25:46.637Z,26.60
2023-02-24T03:29:36.537Z,23.90
2023-02-24T03:33:09.949Z,34.40
2023-02-24T03:36:35.338Z,33.50
2023-02-24T03:40:14.883Z,29.20
2023-02-24T03:43:41.573Z,25.40
2023-02-24T03:47:03.641Z,26.00
2023-02-24T03:50:32.139Z,30.50
2023-02-24T03:54:14.574Z,28.30
2023-02-24T04:02:00.397Z,32.70
2023-02-24T04:05:30.825Z,29.70
2023-02-24T04:09:21.841Z,25.40
2023-02-24T04:13:07.566Z,28.70
2023-02-24T04:16:44.466Z,32.70
2023-02-24T04:20:20.642Z,25.20
2023-02-24T04:23:47.912Z,33.20
2023-02-24T04:27:12.139Z,27.70
2023-02-24T04:30:46.199Z,30.20
2023-02-24T04:34:39.511Z,27.00
2023-02-24T04:38:01.862Z,26.10
2023-02-24T04:41:28.007Z,29.50
2023-02-24T04:44:49.876Z,28.30
2023-02-24T04:48:15.013Z,29.40
2023-02-24T04:51:38.347Z,31.80
2023-02-24T04:55:00.140Z,29.40
2023-02-24T04:58:28.055Z,30.80
2023-02-24T05:02:01.385Z,29.30
2023-02-24T05:05:28.140Z,33.00
2023-02-24T05:08:55.664Z,35.90
2023-02-24T05:12:17.532Z,32.70
2023-02-24T05:15:41.849Z,31.10
2023-02-24T05:19:22.450Z,33.10
2023-02-24T05:22:44.286Z,31.30
2023-02-24T05:26:09.147Z,30.90
2023-02-24T05:29:34.230Z,29.80
2023-02-24T05:32:56.446Z,31.70
2023-02-24T05:36:19.501Z,31.90
2023-02-24T05:39:41.433Z,34.10
2023-02-24T05:43:18.854Z,33.80
2023-02-24T05:46:45.967Z,38.90
2023-02-24T05:50:09.417Z,35.40
2023-02-24T05:53:31.592Z,38.40
2023-02-24T05:56:53.453Z,31.30
2023-02-24T06:00:16.692Z,31.40
2023-02-24T06:03:38.564Z,30.70
2023-02-24T06:07:03.712Z,34.30
2023-02-24T06:10:25.832Z,30.70
2023-02-24T06:13:48.082Z,33.10
2023-02-24T06:17:11.975Z,32.50
2023-02-24T06:20:33.985Z,28.70
2023-02-24T06:23:57.713Z,30.00
2023-02-24T06:27:21.718Z,32.30
2023-02-24T06:30:43.866Z,28.50
2023-02-24T06:34:05.862Z,32.60
2023-02-24T06:37:28.334Z,29.60
2023-02-24T06:41:06.316Z,32.70
2023-02-24T06:44:28.123Z,31.30
2023-02-24T06:47:50.854Z,36.20
2023-02-24T06:51:26.835Z,30.20
2023-02-24T06:54:49.762Z,25.60
2023-02-24T06:58:16.580Z,26.20
2023-02-24T07:01:45.562Z,27.40
2023-02-24T07:05:14.560Z,27.00
2023-02-24T07:08:37.768Z,28.00
2023-02-24T07:12:02.699Z,26.60
2023-02-24T07:15:24.854Z,25.80
2023-02-24T07:19:02.755Z,25.70
2023-02-24T07:22:25.356Z,26.00
2023-02-24T07:25:47.424Z,28.30
2023-02-24T07:32:51.041Z,27.00
2023-02-24T07:36:15.087Z,24.50
2023-02-24T07:39:43.565Z,21.30
2023-02-24T07:43:06.635Z,24.50
2023-02-24T07:46:29.468Z,18.60
2023-02-24T07:49:51.333Z,21.60
2023-02-24T07:53:16.598Z,21.40
2023-02-24T07:56:46.128Z,23.40
2023-02-24T08:03:41.546Z,21.00
2023-02-24T08:07:06.003Z,22.90
2023-02-24T08:10:31.256Z,20.50
2023-02-24T08:14:02.715Z,20.20
2023-02-24T08:17:26.780Z,21.50
2023-02-24T08:20:52.509Z,19.40
2023-02-24T08:24:18.283Z,18.10
2023-02-24T08:27:43.199Z,19.10
2023-02-24T08:31:05.858Z,19.20
2023-02-24T08:34:32.052Z,20.60
2023-02-24T08:37:54.917Z,17.70
2023-02-24T08:41:20.097Z,19.20
2023-02-24T08:44:44.583Z,18.20
2023-02-24T08:48:18.417Z,21.30
2023-02-24T08:51:44.142Z,18.70
2023-02-24T08:55:10.737Z,17.10
2023-02-24T08:58:32.697Z,17.40
2023-02-24T09:02:17.756Z,15.30
2023-02-24T09:05:39.776Z,17.60
2023-02-24T09:09:17.551Z,17.20
2023-02-24T09:12:42.344Z,17.90
2023-02-24T09:16:07.487Z,18.20
2023-02-24T09:19:51.594Z,16.70
2023-02-24T09:23:20.277Z,15.90
2023-02-24T09:26:43.825Z,13.90
2023-02-24T09:30:08.304Z,15.10
2023-02-24T09:33:40.311Z,17.80
2023-02-24T09:37:05.873Z,15.90
2023-02-24T09:40:49.008Z,14.10
2023-02-24T09:44:21.715Z,15.50
2023-02-24T09:47:54.968Z,15.20
2023-02-24T09:51:25.763Z,12.70
2023-02-24T09:55:13.608Z,17.70
2023-02-24T09:58:43.739Z,11.90
2023-02-24T10:02:15.566Z,13.90
2023-02-24T10:05:48.494Z,14.10
2023-02-24T10:09:14.349Z,12.20
2023-02-24T10:12:40.229Z,16.50
2023-02-24T10:16:07.824Z,16.30
2023-02-24T10:19:31.196Z,11.20
2023-02-24T10:23:09.833Z,11.70
2023-02-24T10:27:00.755Z,11.50
2023-02-24T10:30:47.231Z,13.80
2023-02-24T10:34:13.580Z,12.60
2023-02-24T10:37:35.710Z,10.40
2023-02-24T10:40:57.777Z,10.80
2023-02-24T10:44:24.323Z,10.50
2023-02-24T10:47:57.799Z,11.50
2023-02-24T10:51:22.373Z,14.40
2023-02-24T10:55:05.207Z,10.40
2023-02-24T10:58:57.369Z,9.00
2023-02-24T11:02:30.252Z,9.40
2023-02-24T11:06:18.957Z,8.50
2023-02-24T11:09:49.624Z,9.60
2023-02-24T11:13:34.939Z,8.60
2023-02-24T11:17:16.381Z,10.10
2023-02-24T11:20:49.929Z,8.00
2023-02-24T11:24:17.085Z,8.80
2023-02-24T11:27:42.022Z,7.90
2023-02-24T11:31:45.308Z,8.10
2023-02-24T11:35:17.775Z,8.40
2023-02-24T11:38:47.029Z,7.50
2023-02-24T11:42:13.723Z,10.30
2023-02-24T11:46:34.671Z,7.20
2023-02-24T11:50:24.678Z,7.10
2023-02-24T11:54:11.741Z,7.00
2023-02-24T11:57:43.794Z,12.70
2023-02-24T12:01:48.648Z,6.50
2023-02-24T12:05:22.310Z,7.80
2023-02-24T12:08:48.235Z,6.70
2023-02-24T12:12:16.295Z,6.20
2023-02-24T12:15:56.751Z,6.50
2023-02-24T12:19:31.389Z,7.20
2023-02-24T12:22:59.374Z,7.10
2023-02-24T12:26:49.388Z,8.10
2023-02-24T12:30:38.853Z,7.80
2023-02-24T12:34:08.651Z,7.60
2023-02-24T12:38:21.842Z,7.80
2023-02-24T12:42:18.669Z,6.80
2023-02-24T12:45:43.668Z,6.30
2023-02-24T12:49:18.062Z,6.40
2023-02-24T12:52:49.759Z,6.40
2023-02-24T12:56:25.728Z,6.40
2023-02-24T12:59:47.891Z,9.10
2023-02-24T13:03:21.630Z,6.20
2023-02-24T13:07:02.492Z,5.50
2023-02-24T13:10:36.686Z,6.40
2023-02-24T13:14:04.681Z,4.90
2023-02-24T13:17:27.431Z,7.10
2023-02-24T13:20:50.812Z,4.30
2023-02-24T13:24:24.043Z,4.70
2023-02-24T13:27:56.072Z,8.40
2023-02-24T13:31:18.281Z,9.60
2023-02-24T13:34:45.022Z,6.80
2023-02-24T13:38:24.689Z,5.40
2023-02-24T13:41:46.761Z,4.80
2023-02-24T13:45:09.577Z,6.00
2023-02-24T13:48:39.940Z,5.70
2023-02-24T13:52:25.071Z,3.90
2023-02-24T13:56:09.995Z,6.30
2023-02-24T14:00:11.550Z,4.90
2023-02-24T14:03:42.478Z,5.80
2023-02-24T14:07:13.256Z,5.40
2023-02-24T14:10:39.202Z,4.50
2023-02-24T14:14:01.006Z,4.70
2023-02-24T14:17:36.288Z,4.10
2023-02-24T14:20:58.543Z,5.10
2023-02-24T14:24:25.123Z,5.80
2023-02-24T14:27:50.080Z,9.90
